SBFN Informações do Aeroporto

Informações da Pista
Pista 12 Comprimento 6053 ft Largura 148 ft
Elevação 0 ft Limite 0 ft Heading 0
Pista 30 Comprimento 6053 ft Largura 148 ft
Elevação 0 ft Limite 0 ft Heading 0
Frequências do Aeroporto
Tipo AFIS Nome NORONHA RD Frequência 125.9 MHZ
Navaids do Aeroporto
Tipo VOR-DME Nome Fernando Frequência 113700 KHZ
Tipo NDB Nome Noronha Frequência 300 KHZ
Informações meteorológicas do aeroporto e NOTAM
ADDS - METARS form results

(1930 UTC 23 May 2019)
Data provider http://aviationweather.gov/metar/data/
 
METAR text: SBFN 231900Z 14008KT 9999 SCT021 29/24 Q1012
Conditions at: SBFN (FERNANDO DE NORO, BR) observed 1900 UTC 23 May 2019
Temperature: 29.0°C (84°F)
Dewpoint: 24.0°C (75°F) [RH = 74%]
Pressure (altimeter): 29.88 inches Hg (1012.0 mb)
Winds: from the SE (140 degrees) at 9 MPH (8 knots; 4.1 m/s)
Visibility: 6 or more miles (10+ km)
Ceiling: at least 12,000 feet AGL
Clouds: scattered clouds at 2100 feet AGL
Weather: no significant weather observed at this time

Forecast for: SBFN (FERNANDO DE NORO, BR)
Text: TAF SBFN 231600Z 2318/2406 10009KT 9999 SCT020 TX30/2318Z TN25/2404Z RMK PEQ
Forecast period: 1800 UTC 23 May 2019 to 0600 UTC 24 May 2019
Forecast type: FROM: standard forecast or significant change
Winds: from the E (100 degrees) at 10 MPH (9 knots; 4.6 m/s)
Visibility: 6 or more miles 10+ km)
Ceiling: at least 12,000 feet AGL
Clouds: scattered clouds at 2000 feet AGL
Weather: no significant weather forecast for this period